createdAt,value
2023-03-01T00:02:07.539Z,70.30
2023-03-01T00:04:33.926Z,70.21
2023-03-01T00:07:00.232Z,70.78
2023-03-01T00:09:26.547Z,70.97
2023-03-01T00:11:52.911Z,71.55
2023-03-01T00:14:19.282Z,70.75
2023-03-01T00:16:47.032Z,71.00
2023-03-01T00:19:16.668Z,70.08
2023-03-01T00:21:43.342Z,71.78
2023-03-01T00:24:11.254Z,70.85
2023-03-01T00:26:37.645Z,70.71
2023-03-01T00:29:04.667Z,71.71
2023-03-01T00:31:32.809Z,71.59
2023-03-01T00:34:02.397Z,71.59
2023-03-01T00:36:35.506Z,71.60
2023-03-01T00:39:02.731Z,70.72
2023-03-01T00:41:29.312Z,71.71
2023-03-01T00:43:56.393Z,71.41
2023-03-01T00:46:26.655Z,71.74
2023-03-01T00:48:53.822Z,71.44
2023-03-01T00:51:24.165Z,71.29
2023-03-01T00:53:55.536Z,71.49
2023-03-01T00:56:22.303Z,72.84
2023-03-01T00:58:48.633Z,73.10
2023-03-01T01:01:18.872Z,72.28
2023-03-01T01:03:51.313Z,72.71
2023-03-01T01:06:23.557Z,72.71
2023-03-01T01:08:50.971Z,72.65
2023-03-01T01:11:18.031Z,73.71
2023-03-01T01:13:46.740Z,74.36
2023-03-01T01:16:13.968Z,73.79
2023-03-01T01:18:41.368Z,75.35
2023-03-01T01:21:11.980Z,75.36
2023-03-01T01:23:39.415Z,74.33
2023-03-01T01:26:12.896Z,74.32
2023-03-01T01:28:39.669Z,73.82
2023-03-01T01:31:06.642Z,74.06
2023-03-01T01:33:34.163Z,75.24
2023-03-01T01:36:00.694Z,74.94
2023-03-01T01:38:27.128Z,74.17
2023-03-01T01:40:53.585Z,74.66
2023-03-01T01:43:25.870Z,73.55
2023-03-01T01:45:57.988Z,73.38
2023-03-01T01:48:41.030Z,72.97
2023-03-01T01:51:16.394Z,73.67
2023-03-01T01:53:46.745Z,73.90
2023-03-01T01:56:16.131Z,74.77
2023-03-01T01:58:43.585Z,74.11
2023-03-01T02:01:10.453Z,75.91
2023-03-01T02:03:42.979Z,75.04
2023-03-01T02:06:12.134Z,75.20
2023-03-01T02:08:41.325Z,76.70
2023-03-01T02:11:09.620Z,77.18
2023-03-01T02:13:36.040Z,76.32
2023-03-01T02:16:10.226Z,76.32
2023-03-01T02:18:37.914Z,75.73
2023-03-01T02:21:18.349Z,76.25
2023-03-01T02:23:44.698Z,76.51
2023-03-01T02:26:30.417Z,75.60
2023-03-01T02:28:59.530Z,76.60
2023-03-01T02:31:45.785Z,76.29
2023-03-01T02:34:20.401Z,76.56
2023-03-01T02:36:50.643Z,77.64
2023-03-01T02:39:21.578Z,77.32
2023-03-01T02:41:52.872Z,77.47
2023-03-01T02:44:19.674Z,77.78
2023-03-01T02:46:49.860Z,76.82
2023-03-01T02:49:37.412Z,75.69
2023-03-01T02:52:34.015Z,75.61
2023-03-01T02:55:13.707Z,75.95
2023-03-01T02:57:43.728Z,75.98
2023-03-01T03:00:19.952Z,75.31
2023-03-01T03:02:48.155Z,75.88
2023-03-01T03:05:25.291Z,74.51
2023-03-01T03:07:55.318Z,76.23
2023-03-01T03:10:26.003Z,75.64
2023-03-01T03:13:20.054Z,76.34
2023-03-01T03:15:46.412Z,75.37
2023-03-01T03:18:15.752Z,75.96
2023-03-01T03:20:44.067Z,75.42
2023-03-01T03:23:10.551Z,77.00
2023-03-01T03:25:38.607Z,77.29
2023-03-01T03:28:10.412Z,77.00
2023-03-01T03:30:39.857Z,76.88
2023-03-01T03:33:06.946Z,77.37
2023-03-01T03:35:38.940Z,77.63
2023-03-01T03:38:10.093Z,77.11
2023-03-01T03:40:38.251Z,76.82
2023-03-01T03:43:06.374Z,77.43
2023-03-01T03:45:34.325Z,77.56
2023-03-01T03:48:02.099Z,76.08
2023-03-01T03:50:28.804Z,75.65
2023-03-01T03:52:55.172Z,75.84
2023-03-01T03:55:21.564Z,76.53
2023-03-01T03:57:52.222Z,77.59
2023-03-01T04:00:20.803Z,77.14
2023-03-01T04:02:48.767Z,76.31
2023-03-01T04:05:17.813Z,75.69
2023-03-01T04:07:44.956Z,76.29
2023-03-01T04:10:17.249Z,76.96
2023-03-01T04:12:44.110Z,76.61
2023-03-01T04:15:13.970Z,77.57
2023-03-01T04:17:45.751Z,76.97
2023-03-01T04:20:25.554Z,77.87
2023-03-01T04:22:58.172Z,77.71
2023-03-01T04:25:25.402Z,78.53
2023-03-01T04:27:52.553Z,78.33
2023-03-01T04:30:18.925Z,77.28
2023-03-01T04:32:45.305Z,77.40
2023-03-01T04:35:11.610Z,76.69
2023-03-01T04:37:39.392Z,76.89
2023-03-01T04:40:17.207Z,77.78
2023-03-01T04:42:44.004Z,77.53
2023-03-01T04:45:13.926Z,77.40
2023-03-01T04:47:47.927Z,78.18
2023-03-01T04:50:18.179Z,77.75
2023-03-01T04:52:45.176Z,78.17
2023-03-01T04:55:12.048Z,77.59
2023-03-01T04:57:38.352Z,77.09
2023-03-01T05:00:21.384Z,76.59
2023-03-01T05:02:49.914Z,76.90
2023-03-01T05:05:16.535Z,76.62
2023-03-01T05:07:42.848Z,77.02
2023-03-01T05:10:10.156Z,76.27
2023-03-01T05:12:38.203Z,77.74
2023-03-01T05:15:07.866Z,76.94
2023-03-01T05:17:35.138Z,77.60
2023-03-01T05:20:01.917Z,77.33
2023-03-01T05:22:28.239Z,77.45
2023-03-01T05:24:54.948Z,77.70
2023-03-01T05:27:23.030Z,78.04
2023-03-01T05:29:49.365Z,77.75
2023-03-01T05:32:16.579Z,77.52
2023-03-01T05:34:43.024Z,77.55
2023-03-01T05:37:09.839Z,77.91
2023-03-01T05:39:37.212Z,77.76
2023-03-01T05:42:03.643Z,76.11
2023-03-01T05:44:30.008Z,76.03
2023-03-01T05:46:56.458Z,76.76
2023-03-01T05:49:24.839Z,77.78
2023-03-01T05:51:53.244Z,76.89
2023-03-01T05:54:21.159Z,75.87
2023-03-01T05:56:47.823Z,77.67
2023-03-01T05:59:14.782Z,79.16
2023-03-01T06:01:41.596Z,78.39
2023-03-01T06:04:07.925Z,78.97
2023-03-01T06:06:38.208Z,78.72
2023-03-01T06:09:05.946Z,78.00
2023-03-01T06:11:35.036Z,77.60
2023-03-01T06:14:01.428Z,77.54
2023-03-01T06:16:27.841Z,77.84
2023-03-01T06:18:54.261Z,78.34
2023-03-01T06:21:20.537Z,78.21
2023-03-01T06:23:46.837Z,78.61
2023-03-01T06:26:13.176Z,78.34
2023-03-01T06:28:39.488Z,78.16
2023-03-01T06:31:09.338Z,77.15
2023-03-01T06:33:36.886Z,77.34
2023-03-01T06:36:03.402Z,77.05
2023-03-01T06:38:29.718Z,77.04
2023-03-01T06:40:57.500Z,78.08
2023-03-01T06:43:24.684Z,78.19
2023-03-01T06:45:51.348Z,78.21
2023-03-01T06:48:18.227Z,77.62
2023-03-01T06:50:44.702Z,78.33
2023-03-01T06:53:11.491Z,78.35
2023-03-01T06:55:37.830Z,77.73
2023-03-01T06:58:04.413Z,79.08
2023-03-01T07:00:31.241Z,77.87
2023-03-01T07:03:02.686Z,78.23
2023-03-01T07:05:29.616Z,77.89
2023-03-01T07:07:57.129Z,77.92
2023-03-01T07:10:23.919Z,78.19
2023-03-01T07:12:50.249Z,77.91
2023-03-01T07:15:16.791Z,77.64
2023-03-01T07:17:45.308Z,78.15
2023-03-01T07:20:12.320Z,78.24
2023-03-01T07:22:41.725Z,77.20
2023-03-01T07:25:08.474Z,77.31
2023-03-01T07:27:34.884Z,77.29
2023-03-01T07:30:01.483Z,77.39
2023-03-01T07:32:27.840Z,76.69
2023-03-01T07:34:54.161Z,76.38
2023-03-01T07:37:20.600Z,76.85
2023-03-01T07:39:46.883Z,76.56
2023-03-01T07:42:13.191Z,74.78
2023-03-01T07:44:39.516Z,75.13
2023-03-01T07:47:05.974Z,75.09
2023-03-01T07:49:32.289Z,75.29
2023-03-01T07:51:58.882Z,75.31
2023-03-01T07:54:25.344Z,74.97
2023-03-01T07:56:51.660Z,74.14
2023-03-01T07:59:17.992Z,73.83
2023-03-01T08:01:44.394Z,73.44
2023-03-01T08:04:11.364Z,73.52
2023-03-01T08:06:38.139Z,73.97
2023-03-01T08:09:04.537Z,73.11
2023-03-01T08:11:31.038Z,73.51
2023-03-01T08:13:58.290Z,72.42
2023-03-01T08:16:24.910Z,72.76
2023-03-01T08:18:51.244Z,71.91
2023-03-01T08:21:18.600Z,72.25
2023-03-01T08:23:45.515Z,73.27
2023-03-01T08:26:19.277Z,72.25
2023-03-01T08:28:46.344Z,71.92
2023-03-01T08:31:36.438Z,72.98
2023-03-01T08:34:06.033Z,72.12
2023-03-01T08:36:35.883Z,72.09
2023-03-01T08:39:02.305Z,72.37
2023-03-01T08:41:29.054Z,72.25
2023-03-01T08:43:59.440Z,71.78
2023-03-01T08:46:30.709Z,72.26
2023-03-01T08:48:57.575Z,71.43
2023-03-01T08:51:25.882Z,72.67
2023-03-01T08:53:52.757Z,71.61
2023-03-01T08:56:20.265Z,71.87
2023-03-01T08:58:48.125Z,71.36
2023-03-01T09:01:19.834Z,71.42
2023-03-01T09:03:47.246Z,71.34
2023-03-01T09:06:14.960Z,70.36
2023-03-01T09:08:45.639Z,68.95
2023-03-01T09:11:16.161Z,68.84
2023-03-01T09:13:44.336Z,67.80
2023-03-01T09:16:13.080Z,67.45
2023-03-01T09:18:39.655Z,68.19
2023-03-01T09:21:11.171Z,67.56
2023-03-01T09:23:40.455Z,67.04
2023-03-01T09:26:12.543Z,66.51
2023-03-01T09:28:39.849Z,66.17
2023-03-01T09:31:06.303Z,66.82
2023-03-01T09:33:34.354Z,65.86
2023-03-01T09:36:06.802Z,65.91
2023-03-01T09:38:33.456Z,64.74
2023-03-01T09:41:01.347Z,64.44
2023-03-01T09:46:17.479Z,64.05
2023-03-01T09:48:56.270Z,61.87
2023-03-01T09:51:30.495Z,62.51
2023-03-01T09:53:59.465Z,62.13
2023-03-01T09:56:34.688Z,61.98
2023-03-01T09:59:29.528Z,61.12
2023-03-01T10:02:23.792Z,60.01
2023-03-01T10:04:57.144Z,59.42
2023-03-01T10:07:38.712Z,58.18
2023-03-01T10:10:27.101Z,57.67
2023-03-01T10:12:53.777Z,56.80
2023-03-01T10:15:36.637Z,54.71
2023-03-01T10:18:11.595Z,54.99
2023-03-01T10:21:00.200Z,54.64
2023-03-01T10:23:29.242Z,53.47
2023-03-01T10:26:05.291Z,53.45
2023-03-01T10:28:46.473Z,53.83
2023-03-01T10:31:15.965Z,52.67
2023-03-01T10:33:42.803Z,53.60
2023-03-01T10:36:09.559Z,52.47
2023-03-01T10:39:37.310Z,51.43
2023-03-01T10:42:06.843Z,49.68
2023-03-01T10:44:40.744Z,50.00
2023-03-01T10:47:15.492Z,50.36
2023-03-01T10:50:00.003Z,49.24
2023-03-01T10:52:29.713Z,50.66
2023-03-01T10:54:59.074Z,49.46
2023-03-01T10:57:37.045Z,49.04
2023-03-01T11:00:19.838Z,48.12
2023-03-01T11:03:02.064Z,48.35
2023-03-01T11:05:31.548Z,47.23
2023-03-01T11:07:59.899Z,47.16
2023-03-01T11:10:29.226Z,46.62
2023-03-01T11:13:08.980Z,46.10
2023-03-01T11:15:35.852Z,45.29
2023-03-01T11:18:13.872Z,45.10
2023-03-01T11:20:42.232Z,45.08
2023-03-01T11:23:14.186Z,43.77
2023-03-01T11:25:43.605Z,44.23
2023-03-01T11:28:16.579Z,43.96
2023-03-01T11:31:06.898Z,43.29
2023-03-01T11:33:45.970Z,43.36
2023-03-01T11:36:39.450Z,42.70
2023-03-01T11:39:28.787Z,43.67
2023-03-01T11:42:18.555Z,44.28
2023-03-01T11:44:53.139Z,44.51
2023-03-01T11:47:44.874Z,43.98
2023-03-01T11:50:17.255Z,43.20
2023-03-01T11:53:09.685Z,43.66
2023-03-01T11:56:16.209Z,41.92
2023-03-01T11:58:59.653Z,41.31
2023-03-01T12:01:34.225Z,40.57
2023-03-01T12:04:10.953Z,41.48
2023-03-01T12:06:48.991Z,39.66
2023-03-01T12:09:26.841Z,39.99
2023-03-01T12:12:11.951Z,40.16
2023-03-01T12:15:08.265Z,40.10
2023-03-01T12:17:40.499Z,38.91
2023-03-01T12:20:25.038Z,38.30
2023-03-01T12:23:30.347Z,39.00
2023-03-01T12:26:03.653Z,38.05
2023-03-01T12:28:45.958Z,38.43
2023-03-01T12:31:45.379Z,37.79
2023-03-01T12:34:14.708Z,38.80
2023-03-01T12:37:13.423Z,36.13
2023-03-01T12:39:51.135Z,36.86
2023-03-01T12:43:01.120Z,35.77
2023-03-01T12:45:46.771Z,34.87
2023-03-01T12:48:18.948Z,34.60
2023-03-01T12:50:52.536Z,33.64
2023-03-01T12:53:26.405Z,34.47
2023-03-01T12:55:57.006Z,33.98
2023-03-01T12:58:49.610Z,34.08
2023-03-01T13:01:17.245Z,32.54
2023-03-01T13:04:19.072Z,32.32
2023-03-01T13:06:51.957Z,32.21
2023-03-01T13:09:28.428Z,32.41
2023-03-01T13:11:54.757Z,32.42
2023-03-01T13:14:21.003Z,31.81
2023-03-01T13:16:50.081Z,31.33
2023-03-01T13:19:25.087Z,31.91
2023-03-01T13:21:55.517Z,30.87
2023-03-01T13:24:27.751Z,31.40
2023-03-01T13:27:06.383Z,32.48
2023-03-01T13:29:47.141Z,35.13
2023-03-01T13:32:34.366Z,37.68
2023-03-01T13:35:20.573Z,39.86
2023-03-01T13:37:47.841Z,41.30
2023-03-01T13:40:17.705Z,42.85
2023-03-01T13:42:59.360Z,43.47
2023-03-01T13:45:43.765Z,43.41
2023-03-01T13:48:17.594Z,43.73
2023-03-01T13:50:52.393Z,45.33
2023-03-01T13:53:21.020Z,45.10
2023-03-01T13:55:51.775Z,45.33
2023-03-01T13:58:32.318Z,45.35
2023-03-01T14:01:04.982Z,47.03
2023-03-01T14:03:33.378Z,46.31
2023-03-01T14:06:15.295Z,46.63
2023-03-01T14:08:45.463Z,46.59
2023-03-01T14:11:30.542Z,46.28
2023-03-01T14:14:17.065Z,46.00
2023-03-01T14:16:46.795Z,45.42
2023-03-01T14:19:32.564Z,45.61
2023-03-01T14:22:13.671Z,45.69
2023-03-01T14:24:47.963Z,46.55
2023-03-01T14:27:14.775Z,45.31
2023-03-01T14:29:41.454Z,45.56
2023-03-01T14:32:22.377Z,45.41
2023-03-01T14:34:51.132Z,45.81
2023-03-01T14:37:23.743Z,45.60
2023-03-01T14:39:50.480Z,46.35
2023-03-01T14:42:18.058Z,46.13
2023-03-01T14:44:47.169Z,45.96
2023-03-01T14:47:20.666Z,46.34
2023-03-01T14:49:50.486Z,46.66
2023-03-01T14:52:23.945Z,46.14
2023-03-01T14:54:54.056Z,47.08
2023-03-01T14:57:25.834Z,47.04
2023-03-01T14:59:55.433Z,47.37
2023-03-01T15:02:24.830Z,46.61
2023-03-01T15:04:57.491Z,47.40
2023-03-01T15:07:28.763Z,47.39
2023-03-01T15:09:55.080Z,46.66
2023-03-01T15:12:40.078Z,46.79
2023-03-01T15:15:43.674Z,46.58
2023-03-01T15:18:22.470Z,47.58
2023-03-01T15:20:50.606Z,46.97
2023-03-01T15:23:25.149Z,47.11
2023-03-01T15:25:59.237Z,46.82
2023-03-01T15:28:31.317Z,47.42
2023-03-01T15:31:02.828Z,47.52
2023-03-01T15:33:33.186Z,46.47
2023-03-01T15:36:02.323Z,46.83
2023-03-01T15:38:32.912Z,46.21
2023-03-01T15:41:05.212Z,46.59
2023-03-01T15:43:47.308Z,47.04
2023-03-01T15:46:25.891Z,46.89
2023-03-01T15:48:57.299Z,46.68
2023-03-01T15:51:30.586Z,47.03
2023-03-01T15:53:59.352Z,47.16
2023-03-01T15:56:25.789Z,46.72
2023-03-01T15:58:52.099Z,46.32
2023-03-01T16:01:18.884Z,47.31
2023-03-01T16:03:46.180Z,47.16
2023-03-01T16:06:13.234Z,46.49
2023-03-01T16:08:39.567Z,47.12
2023-03-01T16:11:14.797Z,47.91
2023-03-01T16:13:41.304Z,46.81
2023-03-01T16:16:10.258Z,46.72
2023-03-01T16:18:36.623Z,46.70
2023-03-01T16:21:02.978Z,47.50
2023-03-01T16:23:29.290Z,47.42
2023-03-01T16:26:00.512Z,47.38
2023-03-01T16:28:28.661Z,47.42
2023-03-01T16:30:55.719Z,48.18
2023-03-01T16:33:33.516Z,47.75
2023-03-01T16:36:10.951Z,48.22
2023-03-01T16:38:38.139Z,47.79
2023-03-01T16:41:04.520Z,48.71
2023-03-01T16:43:31.626Z,48.49
2023-03-01T16:45:59.673Z,49.00
2023-03-01T16:48:26.847Z,48.93
2023-03-01T16:50:57.804Z,47.54
2023-03-01T16:53:24.142Z,47.15
2023-03-01T16:55:57.899Z,47.89
2023-03-01T16:58:25.531Z,47.27
2023-03-01T17:00:54.174Z,47.29
2023-03-01T17:03:22.471Z,47.20
2023-03-01T17:05:49.719Z,47.00
2023-03-01T17:08:16.904Z,47.76
2023-03-01T17:10:43.490Z,47.65
2023-03-01T17:13:11.057Z,47.51
2023-03-01T17:15:41.447Z,47.25
2023-03-01T17:18:09.439Z,47.08
2023-03-01T17:20:36.675Z,46.98
2023-03-01T17:23:03.772Z,47.56
2023-03-01T17:25:30.250Z,47.21
2023-03-01T17:27:56.646Z,47.15
2023-03-01T17:30:23.114Z,46.99
2023-03-01T17:32:49.641Z,47.02
2023-03-01T17:35:16.070Z,46.73
2023-03-01T17:37:46.220Z,46.78
2023-03-01T17:40:13.165Z,46.54
2023-03-01T17:42:39.562Z,47.05
2023-03-01T17:45:06.720Z,46.66
2023-03-01T17:47:33.012Z,45.86
2023-03-01T17:50:00.243Z,46.33
2023-03-01T17:52:26.561Z,46.39
2023-03-01T17:54:52.890Z,47.24
2023-03-01T17:57:19.201Z,46.97
2023-03-01T17:59:45.550Z,47.05
2023-03-01T18:02:12.999Z,46.95
2023-03-01T18:04:39.467Z,46.66
2023-03-01T18:07:05.790Z,46.76
2023-03-01T18:09:32.112Z,46.27
2023-03-01T18:11:58.695Z,46.42
2023-03-01T18:14:25.798Z,46.78
2023-03-01T18:16:52.149Z,46.88
2023-03-01T18:19:18.706Z,45.96
2023-03-01T18:21:44.998Z,45.87
2023-03-01T18:24:11.318Z,46.04
2023-03-01T18:26:39.256Z,46.04
2023-03-01T18:29:07.587Z,45.71
2023-03-01T18:31:33.968Z,46.09
2023-03-01T18:34:03.275Z,46.23
2023-03-01T18:36:32.964Z,46.49
2023-03-01T18:39:01.227Z,46.94
2023-03-01T18:41:28.509Z,46.69
2023-03-01T18:43:58.407Z,46.72
2023-03-01T18:46:25.793Z,47.13
2023-03-01T18:48:53.377Z,46.69
2023-03-01T18:51:22.859Z,46.55
2023-03-01T18:53:49.339Z,46.12
2023-03-01T18:56:15.734Z,46.27
2023-03-01T18:58:42.974Z,46.61
2023-03-01T19:01:15.904Z,46.48
2023-03-01T19:03:57.735Z,46.55
2023-03-01T19:06:31.283Z,46.90
2023-03-01T19:08:57.783Z,46.96
2023-03-01T19:11:26.879Z,47.37
2023-03-01T19:13:54.270Z,47.23
2023-03-01T19:17:05.108Z,47.31
2023-03-01T19:19:32.686Z,47.55
2023-03-01T19:22:05.633Z,47.45
2023-03-01T19:24:32.750Z,48.18
2023-03-01T19:26:59.061Z,48.20
2023-03-01T19:29:26.118Z,48.38
2023-03-01T19:31:52.484Z,48.10
2023-03-01T19:34:18.819Z,48.37
2023-03-01T19:36:45.185Z,48.06
2023-03-01T19:39:13.354Z,48.42
2023-03-01T19:41:40.100Z,48.30
2023-03-01T19:44:08.495Z,47.93
2023-03-01T19:46:35.483Z,48.02
2023-03-01T19:49:03.337Z,47.90
2023-03-01T19:51:33.262Z,48.30
2023-03-01T19:53:59.980Z,48.12
2023-03-01T19:56:26.317Z,48.58
2023-03-01T19:59:00.056Z,49.37
2023-03-01T20:01:32.702Z,49.25
2023-03-01T20:03:59.014Z,49.38
2023-03-01T20:06:25.643Z,49.61
2023-03-01T20:08:52.454Z,49.56
2023-03-01T20:11:19.780Z,49.48
2023-03-01T20:13:46.169Z,49.87
2023-03-01T20:16:16.526Z,50.38
2023-03-01T20:18:42.951Z,50.51
2023-03-01T20:21:21.477Z,50.83
2023-03-01T20:23:49.791Z,50.89
2023-03-01T20:26:19.380Z,51.29
2023-03-01T20:28:47.444Z,51.68
2023-03-01T20:31:15.761Z,51.97
2023-03-01T20:33:42.140Z,52.54
2023-03-01T20:36:10.057Z,52.63
2023-03-01T20:38:37.420Z,52.34
2023-03-01T20:41:06.348Z,52.81
2023-03-01T20:43:33.456Z,52.82
2023-03-01T20:46:03.981Z,52.80
2023-03-01T20:48:30.301Z,53.23
2023-03-01T20:50:59.677Z,53.53
2023-03-01T20:53:26.000Z,53.13
2023-03-01T20:55:52.323Z,53.26
2023-03-01T20:58:18.603Z,52.92
2023-03-01T21:00:45.005Z,53.03
2023-03-01T21:03:11.337Z,53.06
2023-03-01T21:05:37.695Z,52.98
2023-03-01T21:08:04.172Z,53.65
2023-03-01T21:10:32.264Z,53.33
2023-03-01T21:12:58.669Z,53.35
2023-03-01T21:15:29.311Z,53.88
2023-03-01T21:17:56.013Z,53.29
2023-03-01T21:20:22.628Z,54.18
2023-03-01T21:22:49.019Z,54.01
2023-03-01T21:25:15.518Z,53.84
2023-03-01T21:27:41.885Z,54.09
2023-03-01T21:30:08.704Z,53.56
2023-03-01T21:32:35.090Z,53.80
2023-03-01T21:35:01.463Z,53.53
2023-03-01T21:37:27.834Z,53.97
2023-03-01T21:39:54.148Z,53.96
2023-03-01T21:42:20.452Z,54.13
2023-03-01T21:44:46.818Z,54.63
2023-03-01T21:47:13.223Z,54.84
2023-03-01T21:49:39.524Z,54.84
2023-03-01T21:52:05.861Z,54.27
2023-03-01T21:54:34.067Z,55.97
2023-03-01T21:57:00.523Z,55.83
2023-03-01T21:59:28.179Z,56.57
2023-03-01T22:01:54.511Z,57.09
2023-03-01T22:04:22.457Z,57.28
2023-03-01T22:06:54.185Z,57.04
2023-03-01T22:09:22.886Z,57.43
2023-03-01T22:11:53.849Z,57.69
2023-03-01T22:14:21.502Z,58.01
2023-03-01T22:16:51.082Z,57.33
2023-03-01T22:19:17.831Z,57.80
2023-03-01T22:21:49.005Z,58.36
2023-03-01T22:24:16.181Z,58.98
2023-03-01T22:26:44.651Z,59.12
2023-03-01T22:29:14.474Z,58.34
2023-03-01T22:31:41.340Z,58.02
2023-03-01T22:34:08.870Z,58.87
2023-03-01T22:36:35.553Z,58.29
2023-03-01T22:39:02.558Z,58.33
2023-03-01T22:41:31.254Z,58.71
2023-03-01T22:43:57.851Z,58.19
2023-03-01T22:46:25.460Z,58.87
2023-03-01T22:48:52.267Z,59.11
2023-03-01T22:51:21.508Z,58.21
2023-03-01T22:53:48.124Z,57.92
2023-03-01T22:56:28.984Z,57.95
2023-03-01T22:58:57.059Z,58.34
2023-03-01T23:01:25.025Z,58.30
2023-03-01T23:03:53.468Z,57.47
2023-03-01T23:06:21.259Z,58.05
2023-03-01T23:08:53.583Z,58.17
2023-03-01T23:11:21.230Z,59.16
2023-03-01T23:13:48.399Z,59.06
2023-03-01T23:16:15.984Z,58.68
2023-03-01T23:18:43.343Z,58.53
2023-03-01T23:21:15.602Z,58.76
2023-03-01T23:23:42.897Z,58.92
2023-03-01T23:26:09.678Z,58.68
2023-03-01T23:28:40.202Z,59.33
2023-03-01T23:31:09.854Z,59.23
2023-03-01T23:33:38.915Z,59.15
2023-03-01T23:36:19.989Z,58.57
2023-03-01T23:38:47.444Z,59.19
2023-03-01T23:41:16.107Z,59.05
2023-03-01T23:43:47.079Z,60.51
2023-03-01T23:46:14.944Z,59.69
2023-03-01T23:48:42.750Z,59.61
2023-03-01T23:51:09.633Z,60.19
2023-03-01T23:53:39.128Z,59.68
2023-03-01T23:56:06.364Z,60.06
2023-03-01T23:58:32.726Z,60.10
